createdAt,value
2019-05-23T00:01:02.131Z,3.40
2019-05-23T00:06:21.001Z,3.10
2019-05-23T00:11:40.698Z,3.17
2019-05-23T00:16:46.403Z,3.33
2019-05-23T00:21:51.638Z,2.90
2019-05-23T00:27:01.210Z,3.70
2019-05-23T00:32:20.011Z,3.37
2019-05-23T00:37:25.513Z,3.60
2019-05-23T00:42:31.885Z,3.90
2019-05-23T00:47:39.866Z,4.33
2019-05-23T00:52:45.518Z,4.10
2019-05-23T00:57:51.665Z,3.47
2019-05-23T01:02:58.251Z,3.90
2019-05-23T01:08:03.966Z,4.10
2019-05-23T01:13:10.588Z,3.92
2019-05-23T01:18:15.944Z,3.87
2019-05-23T01:23:22.638Z,4.10
2019-05-23T01:28:27.989Z,3.93
2019-05-23T01:33:34.873Z,3.17
2019-05-23T01:38:40.303Z,3.60
2019-05-23T01:43:47.826Z,3.43
2019-05-23T01:48:52.695Z,3.53
2019-05-23T01:53:57.638Z,3.67
2019-05-23T01:59:03.033Z,3.60
2019-05-23T02:04:08.422Z,3.17
2019-05-23T02:09:14.995Z,3.27
2019-05-23T02:14:21.391Z,3.50
2019-05-23T02:19:28.271Z,2.80
2019-05-23T02:24:33.401Z,3.50
2019-05-23T02:29:38.232Z,3.40
2019-05-23T02:34:43.997Z,4.30
2019-05-23T02:39:52.401Z,3.77
2019-05-23T02:45:02.189Z,3.40
2019-05-23T02:50:20.803Z,3.70
2019-05-23T02:55:36.087Z,3.50
2019-05-23T03:00:54.120Z,3.50
2019-05-23T03:05:56.919Z,3.60
2019-05-23T03:11:05.209Z,3.70
2019-05-23T03:16:13.377Z,3.60
2019-05-23T03:21:20.363Z,3.67
2019-05-23T03:26:37.411Z,4.17
2019-05-23T03:31:48.078Z,3.50
2019-05-23T03:36:55.808Z,4.13
2019-05-23T03:42:03.227Z,3.83
2019-05-23T03:47:10.423Z,4.33
2019-05-23T03:52:17.024Z,3.65
2019-05-23T03:57:25.792Z,3.90
2019-05-23T04:02:32.064Z,4.90
2019-05-23T04:07:39.654Z,4.30
2019-05-23T04:12:51.082Z,4.70
2019-05-23T04:17:59.303Z,4.17
2019-05-23T04:23:05.966Z,4.50
2019-05-23T04:28:11.251Z,5.20
2019-05-23T04:33:20.033Z,4.72
2019-05-23T04:38:26.766Z,5.00
2019-05-23T04:43:31.993Z,5.90
2019-05-23T04:48:40.000Z,6.40
2019-05-23T04:53:46.482Z,5.13
2019-05-23T04:58:54.939Z,4.90
2019-05-23T05:04:00.842Z,6.00
2019-05-23T05:09:08.967Z,5.50
2019-05-23T05:14:14.377Z,4.93
2019-05-23T05:19:19.697Z,5.40
2019-05-23T05:24:24.579Z,4.43
2019-05-23T05:29:29.472Z,4.50
2019-05-23T05:34:34.674Z,4.50
2019-05-23T05:39:39.670Z,4.17
2019-05-23T05:44:45.209Z,3.70
2019-05-23T05:49:50.708Z,4.10
2019-05-23T05:54:55.679Z,3.73
2019-05-23T06:00:00.512Z,4.10
2019-05-23T06:05:07.881Z,4.23
2019-05-23T06:10:15.350Z,3.80
2019-05-23T06:15:21.117Z,4.10
2019-05-23T06:20:26.933Z,4.30
2019-05-23T06:25:32.069Z,4.43
2019-05-23T06:30:39.083Z,3.70
2019-05-23T06:35:44.838Z,3.33
2019-05-23T06:40:50.297Z,3.03
2019-05-23T06:45:55.209Z,3.70
2019-05-23T06:51:00.045Z,2.60
2019-05-23T06:56:05.784Z,2.50
2019-05-23T07:01:10.737Z,2.67
2019-05-23T07:06:18.525Z,2.60
2019-05-23T07:11:24.022Z,2.13
2019-05-23T07:16:28.988Z,2.27
2019-05-23T07:21:34.528Z,1.70
2019-05-23T07:26:39.819Z,1.40
2019-05-23T07:31:44.750Z,2.40
2019-05-23T07:36:50.008Z,1.00
2019-05-23T07:41:55.163Z,1.70
2019-05-23T07:47:00.172Z,1.03
2019-05-23T07:52:05.092Z,1.20
2019-05-23T07:57:11.652Z,1.80
2019-05-23T08:02:36.055Z,1.60
2019-05-23T08:07:41.844Z,1.70
2019-05-23T08:12:47.361Z,1.80
2019-05-23T08:17:52.323Z,2.00
2019-05-23T08:22:57.349Z,1.60
2019-05-23T08:28:02.826Z,2.10
2019-05-23T08:33:11.177Z,1.67
2019-05-23T08:38:16.097Z,2.00
2019-05-23T08:43:21.076Z,2.13
2019-05-23T08:48:25.925Z,2.73
2019-05-23T08:53:31.109Z,1.53
2019-05-23T08:58:38.219Z,1.80
2019-05-23T09:03:43.325Z,1.80
2019-05-23T09:08:48.544Z,1.57
2019-05-23T09:13:54.229Z,1.60
2019-05-23T09:18:59.159Z,1.70
